sensor_id;sensor_type;location;lat;lon;timestamp;temperature;humidity
15413;DHT22;7805;49.554;7.632;2023-02-28T00:00:48;1.80;95.20
15413;DHT22;7805;49.554;7.632;2023-02-28T00:03:14;1.70;94.80
15413;DHT22;7805;49.554;7.632;2023-02-28T00:05:39;1.70;94.90
15413;DHT22;7805;49.554;7.632;2023-02-28T00:08:06;1.70;94.70
15413;DHT22;7805;49.554;7.632;2023-02-28T00:10:32;1.70;94.50
15413;DHT22;7805;49.554;7.632;2023-02-28T00:13:04;1.70;94.70
15413;DHT22;7805;49.554;7.632;2023-02-28T00:15:31;1.70;94.90
15413;DHT22;7805;49.554;7.632;2023-02-28T00:17:57;1.60;95.40
15413;DHT22;7805;49.554;7.632;2023-02-28T00:20:23;1.50;95.50
15413;DHT22;7805;49.554;7.632;2023-02-28T00:22:51;1.40;95.30
15413;DHT22;7805;49.554;7.632;2023-02-28T00:25:19;1.40;95.90
15413;DHT22;7805;49.554;7.632;2023-02-28T00:27:45;1.30;96.00
15413;DHT22;7805;49.554;7.632;2023-02-28T00:30:17;1.30;96.20
15413;DHT22;7805;49.554;7.632;2023-02-28T00:32:44;1.30;96.70
15413;DHT22;7805;49.554;7.632;2023-02-28T00:35:10;1.20;96.60
15413;DHT22;7805;49.554;7.632;2023-02-28T00:37:36;1.20;96.90
15413;DHT22;7805;49.554;7.632;2023-02-28T00:40:03;1.20;97.40
15413;DHT22;7805;49.554;7.632;2023-02-28T00:42:31;1.20;97.50
15413;DHT22;7805;49.554;7.632;2023-02-28T00:44:57;1.10;97.20
15413;DHT22;7805;49.554;7.632;2023-02-28T00:47:22;1.10;97.90
15413;DHT22;7805;49.554;7.632;2023-02-28T00:49:48;1.10;97.30
15413;DHT22;7805;49.554;7.632;2023-02-28T00:52:13;1.10;98.10
15413;DHT22;7805;49.554;7.632;2023-02-28T00:54:39;1.10;97.40
15413;DHT22;7805;49.554;7.632;2023-02-28T00:57:04;1.10;97.40
15413;DHT22;7805;49.554;7.632;2023-02-28T00:59:30;1.10;98.30
15413;DHT22;7805;49.554;7.632;2023-02-28T01:01:55;1.10;98.00
15413;DHT22;7805;49.554;7.632;2023-02-28T01:04:21;1.00;98.30
15413;DHT22;7805;49.554;7.632;2023-02-28T01:06:47;1.00;98.20
15413;DHT22;7805;49.554;7.632;2023-02-28T01:09:13;1.00;98.70
15413;DHT22;7805;49.554;7.632;2023-02-28T01:11:38;1.00;99.00
15413;DHT22;7805;49.554;7.632;2023-02-28T01:14:06;1.00;98.30
15413;DHT22;7805;49.554;7.632;2023-02-28T01:16:31;0.90;98.50
15413;DHT22;7805;49.554;7.632;2023-02-28T01:18:57;0.90;98.50
15413;DHT22;7805;49.554;7.632;2023-02-28T01:21:23;0.90;98.70
15413;DHT22;7805;49.554;7.632;2023-02-28T01:23:49;0.90;99.30
15413;DHT22;7805;49.554;7.632;2023-02-28T01:26:16;0.90;99.10
15413;DHT22;7805;49.554;7.632;2023-02-28T01:28:42;0.90;99.40
15413;DHT22;7805;49.554;7.632;2023-02-28T01:31:08;0.80;99.60
15413;DHT22;7805;49.554;7.632;2023-02-28T01:33:35;0.80;99.50
15413;DHT22;7805;49.554;7.632;2023-02-28T01:36:03;0.80;99.70
15413;DHT22;7805;49.554;7.632;2023-02-28T01:38:29;0.80;99.60
15413;DHT22;7805;49.554;7.632;2023-02-28T01:40:55;0.80;99.50
15413;DHT22;7805;49.554;7.632;2023-02-28T01:45:48;0.80;99.70
15413;DHT22;7805;49.554;7.632;2023-02-28T01:48:14;0.70;99.90
15413;DHT22;7805;49.554;7.632;2023-02-28T01:50:43;0.70;99.90
15413;DHT22;7805;49.554;7.632;2023-02-28T01:53:17;0.60;99.90
15413;DHT22;7805;49.554;7.632;2023-02-28T01:55:48;0.50;99.90
15413;DHT22;7805;49.554;7.632;2023-02-28T01:58:15;0.50;99.90
15413;DHT22;7805;49.554;7.632;2023-02-28T02:00:41;0.50;99.90
15413;DHT22;7805;49.554;7.632;2023-02-28T02:03:13;0.50;99.90
15413;DHT22;7805;49.554;7.632;2023-02-28T02:05:40;0.50;99.90
15413;DHT22;7805;49.554;7.632;2023-02-28T02:08:15;0.50;99.90
15413;DHT22;7805;49.554;7.632;2023-02-28T02:11:00;0.50;99.90
15413;DHT22;7805;49.554;7.632;2023-02-28T02:13:34;0.50;99.90
15413;DHT22;7805;49.554;7.632;2023-02-28T02:37:51;0.50;99.90
15413;DHT22;7805;49.554;7.632;2023-02-28T02:40:21;0.40;99.90
15413;DHT22;7805;49.554;7.632;2023-02-28T02:48:03;0.50;99.90
15413;DHT22;7805;49.554;7.632;2023-02-28T02:50:34;0.40;99.90
15413;DHT22;7805;49.554;7.632;2023-02-28T02:53:03;0.50;99.90
15413;DHT22;7805;49.554;7.632;2023-02-28T02:55:32;0.40;99.90
15413;DHT22;7805;49.554;7.632;2023-02-28T02:58:02;0.40;99.90
15413;DHT22;7805;49.554;7.632;2023-02-28T03:00:33;0.40;99.90
15413;DHT22;7805;49.554;7.632;2023-02-28T03:03:01;0.40;99.90
15413;DHT22;7805;49.554;7.632;2023-02-28T03:05:41;0.40;99.90
15413;DHT22;7805;49.554;7.632;2023-02-28T03:08:09;0.30;99.90
15413;DHT22;7805;49.554;7.632;2023-02-28T03:10:43;0.30;99.90
15413;DHT22;7805;49.554;7.632;2023-02-28T03:13:44;0.30;99.90
15413;DHT22;7805;49.554;7.632;2023-02-28T03:19:21;0.30;99.90
15413;DHT22;7805;49.554;7.632;2023-02-28T03:22:01;0.30;99.90
15413;DHT22;7805;49.554;7.632;2023-02-28T03:27:16;0.20;99.90
15413;DHT22;7805;49.554;7.632;2023-02-28T03:29:50;-1.00;99.90
15413;DHT22;7805;49.554;7.632;2023-02-28T03:32:28;0.20;99.90
15413;DHT22;7805;49.554;7.632;2023-02-28T03:35:27;0.20;99.90
15413;DHT22;7805;49.554;7.632;2023-02-28T03:38:02;0.20;99.90
15413;DHT22;7805;49.554;7.632;2023-02-28T03:40:31;0.30;99.90
15413;DHT22;7805;49.554;7.632;2023-02-28T03:43:03;0.20;99.90
15413;DHT22;7805;49.554;7.632;2023-02-28T03:45:33;0.20;99.90
15413;DHT22;7805;49.554;7.632;2023-02-28T03:48:07;0.20;99.90
15413;DHT22;7805;49.554;7.632;2023-02-28T03:50:38;0.20;99.90
15413;DHT22;7805;49.554;7.632;2023-02-28T03:56:11;0.20;99.90
15413;DHT22;7805;49.554;7.632;2023-02-28T04:01:17;0.20;99.90
15413;DHT22;7805;49.554;7.632;2023-02-28T04:03:45;0.20;99.90
15413;DHT22;7805;49.554;7.632;2023-02-28T04:06:19;0.10;99.90
15413;DHT22;7805;49.554;7.632;2023-02-28T04:08:46;0.10;99.90
15413;DHT22;7805;49.554;7.632;2023-02-28T04:13:47;0.00;99.90
15413;DHT22;7805;49.554;7.632;2023-02-28T04:16:13;0.00;99.90
15413;DHT22;7805;49.554;7.632;2023-02-28T04:18:39;0.00;99.90
15413;DHT22;7805;49.554;7.632;2023-02-28T04:21:06;0.00;99.90
15413;DHT22;7805;49.554;7.632;2023-02-28T04:23:32;-0.10;99.90
15413;DHT22;7805;49.554;7.632;2023-02-28T04:25:58;-0.10;99.90
15413;DHT22;7805;49.554;7.632;2023-02-28T04:28:24;-0.10;99.90
15413;DHT22;7805;49.554;7.632;2023-02-28T04:31:03;-0.20;99.90
15413;DHT22;7805;49.554;7.632;2023-02-28T04:33:30;-0.20;99.90
15413;DHT22;7805;49.554;7.632;2023-02-28T04:36:04;-0.40;99.90
15413;DHT22;7805;49.554;7.632;2023-02-28T04:38:33;-0.40;99.90
15413;DHT22;7805;49.554;7.632;2023-02-28T04:40:59;-0.40;99.90
15413;DHT22;7805;49.554;7.632;2023-02-28T04:43:29;-0.40;99.90
15413;DHT22;7805;49.554;7.632;2023-02-28T04:45:55;-0.30;99.90
15413;DHT22;7805;49.554;7.632;2023-02-28T04:48:25;-0.30;99.90
15413;DHT22;7805;49.554;7.632;2023-02-28T04:50:51;-0.20;99.90
15413;DHT22;7805;49.554;7.632;2023-02-28T04:53:17;-0.20;99.90
15413;DHT22;7805;49.554;7.632;2023-02-28T04:55:43;0.70;99.90
15413;DHT22;7805;49.554;7.632;2023-02-28T04:58:09;-0.10;99.90
15413;DHT22;7805;49.554;7.632;2023-02-28T05:00:35;-0.10;99.90
15413;DHT22;7805;49.554;7.632;2023-02-28T05:03:00;-0.10;99.90
15413;DHT22;7805;49.554;7.632;2023-02-28T05:05:26;-0.10;99.90
15413;DHT22;7805;49.554;7.632;2023-02-28T05:07:52;0.00;99.90
15413;DHT22;7805;49.554;7.632;2023-02-28T05:10:19;0.00;99.90
15413;DHT22;7805;49.554;7.632;2023-02-28T05:12:44;-0.10;99.90
15413;DHT22;7805;49.554;7.632;2023-02-28T05:15:13;-0.10;99.90
15413;DHT22;7805;49.554;7.632;2023-02-28T05:17:39;0.00;99.90
15413;DHT22;7805;49.554;7.632;2023-02-28T05:20:06;0.00;99.90
15413;DHT22;7805;49.554;7.632;2023-02-28T05:22:31;0.00;99.90
15413;DHT22;7805;49.554;7.632;2023-02-28T05:24:57;0.00;99.90
15413;DHT22;7805;49.554;7.632;2023-02-28T05:27:23;0.00;99.90
15413;DHT22;7805;49.554;7.632;2023-02-28T05:29:48;1.90;99.90
15413;DHT22;7805;49.554;7.632;2023-02-28T05:32:14;0.10;99.90
15413;DHT22;7805;49.554;7.632;2023-02-28T05:34:40;0.10;99.90
15413;DHT22;7805;49.554;7.632;2023-02-28T05:37:08;0.00;99.90
15413;DHT22;7805;49.554;7.632;2023-02-28T05:39:36;0.00;99.90
15413;DHT22;7805;49.554;7.632;2023-02-28T05:42:01;0.00;99.90
15413;DHT22;7805;49.554;7.632;2023-02-28T05:44:27;0.10;99.90
15413;DHT22;7805;49.554;7.632;2023-02-28T05:46:53;0.10;99.90
15413;DHT22;7805;49.554;7.632;2023-02-28T05:49:18;0.10;99.90
15413;DHT22;7805;49.554;7.632;2023-02-28T05:51:44;0.10;99.90
15413;DHT22;7805;49.554;7.632;2023-02-28T05:54:09;0.00;99.90
15413;DHT22;7805;49.554;7.632;2023-02-28T05:56:35;0.00;99.90
15413;DHT22;7805;49.554;7.632;2023-02-28T05:59:00;-0.10;99.90
15413;DHT22;7805;49.554;7.632;2023-02-28T06:01:43;0.00;99.90
15413;DHT22;7805;49.554;7.632;2023-02-28T06:04:14;0.00;99.90
15413;DHT22;7805;49.554;7.632;2023-02-28T06:06:46;-0.10;99.90
15413;DHT22;7805;49.554;7.632;2023-02-28T06:09:11;-0.10;99.90
15413;DHT22;7805;49.554;7.632;2023-02-28T06:11:37;-0.10;99.90
15413;DHT22;7805;49.554;7.632;2023-02-28T06:14:04;-0.10;99.90
15413;DHT22;7805;49.554;7.632;2023-02-28T06:16:31;-0.10;99.90
15413;DHT22;7805;49.554;7.632;2023-02-28T06:19:01;-0.10;99.90
15413;DHT22;7805;49.554;7.632;2023-02-28T06:21:28;-0.10;99.90
15413;DHT22;7805;49.554;7.632;2023-02-28T06:23:55;-0.10;99.90
15413;DHT22;7805;49.554;7.632;2023-02-28T06:26:21;-0.10;99.90
15413;DHT22;7805;49.554;7.632;2023-02-28T06:28:47;-0.10;99.90
15413;DHT22;7805;49.554;7.632;2023-02-28T06:31:14;-0.10;99.90
15413;DHT22;7805;49.554;7.632;2023-02-28T06:33:41;-0.10;99.90
15413;DHT22;7805;49.554;7.632;2023-02-28T06:36:07;0.00;99.90
15413;DHT22;7805;49.554;7.632;2023-02-28T06:38:33;0.00;99.90
15413;DHT22;7805;49.554;7.632;2023-02-28T06:41:00;0.00;99.90
15413;DHT22;7805;49.554;7.632;2023-02-28T06:43:29;0.00;99.90
15413;DHT22;7805;49.554;7.632;2023-02-28T06:45:57;0.10;99.90
15413;DHT22;7805;49.554;7.632;2023-02-28T06:48:23;0.10;99.90
15413;DHT22;7805;49.554;7.632;2023-02-28T06:50:49;0.20;99.90
15413;DHT22;7805;49.554;7.632;2023-02-28T06:53:14;0.10;99.90
15413;DHT22;7805;49.554;7.632;2023-02-28T06:55:40;0.10;99.90
15413;DHT22;7805;49.554;7.632;2023-02-28T06:58:06;0.20;99.90
15413;DHT22;7805;49.554;7.632;2023-02-28T07:00:43;0.20;99.90
15413;DHT22;7805;49.554;7.632;2023-02-28T07:03:10;0.30;99.90
15413;DHT22;7805;49.554;7.632;2023-02-28T07:05:39;0.40;99.90
15413;DHT22;7805;49.554;7.632;2023-02-28T07:08:05;0.40;99.90
15413;DHT22;7805;49.554;7.632;2023-02-28T07:10:32;0.50;99.90
15413;DHT22;7805;49.554;7.632;2023-02-28T07:12:58;0.60;99.90
15413;DHT22;7805;49.554;7.632;2023-02-28T07:15:24;0.70;99.90
15413;DHT22;7805;49.554;7.632;2023-02-28T07:17:50;1.00;99.90
15413;DHT22;7805;49.554;7.632;2023-02-28T07:20:16;0.70;99.90
15413;DHT22;7805;49.554;7.632;2023-02-28T07:22:41;0.90;99.90
15413;DHT22;7805;49.554;7.632;2023-02-28T07:25:07;1.00;99.90
15413;DHT22;7805;49.554;7.632;2023-02-28T07:27:33;1.20;99.90
15413;DHT22;7805;49.554;7.632;2023-02-28T07:30:00;1.20;99.90
15413;DHT22;7805;49.554;7.632;2023-02-28T07:32:27;1.30;99.90
15413;DHT22;7805;49.554;7.632;2023-02-28T07:34:53;1.40;99.90
15413;DHT22;7805;49.554;7.632;2023-02-28T07:37:20;1.40;99.90
15413;DHT22;7805;49.554;7.632;2023-02-28T07:39:45;1.30;99.90
15413;DHT22;7805;49.554;7.632;2023-02-28T07:42:11;1.30;99.90
15413;DHT22;7805;49.554;7.632;2023-02-28T07:44:39;1.40;99.90
15413;DHT22;7805;49.554;7.632;2023-02-28T07:47:09;1.40;99.90
15413;DHT22;7805;49.554;7.632;2023-02-28T07:49:36;1.50;99.90
15413;DHT22;7805;49.554;7.632;2023-02-28T07:52:06;1.50;99.90
15413;DHT22;7805;49.554;7.632;2023-02-28T07:54:32;1.60;99.90
15413;DHT22;7805;49.554;7.632;2023-02-28T07:56:58;1.70;99.90
15413;DHT22;7805;49.554;7.632;2023-02-28T07:59:24;1.70;99.90
15413;DHT22;7805;49.554;7.632;2023-02-28T08:01:50;1.80;99.90
15413;DHT22;7805;49.554;7.632;2023-02-28T08:04:17;1.80;99.90
15413;DHT22;7805;49.554;7.632;2023-02-28T08:06:42;1.80;99.90
15413;DHT22;7805;49.554;7.632;2023-02-28T08:09:08;1.80;99.90
15413;DHT22;7805;49.554;7.632;2023-02-28T08:11:33;1.90;99.90
15413;DHT22;7805;49.554;7.632;2023-02-28T08:13:59;2.10;99.90
15413;DHT22;7805;49.554;7.632;2023-02-28T08:16:25;2.10;99.90
15413;DHT22;7805;49.554;7.632;2023-02-28T08:18:53;2.10;99.90
15413;DHT22;7805;49.554;7.632;2023-02-28T08:21:20;2.20;99.90
15413;DHT22;7805;49.554;7.632;2023-02-28T08:23:49;2.00;99.90
15413;DHT22;7805;49.554;7.632;2023-02-28T08:26:19;2.30;99.90
15413;DHT22;7805;49.554;7.632;2023-02-28T08:28:45;2.40;99.90
15413;DHT22;7805;49.554;7.632;2023-02-28T08:31:13;2.50;99.90
15413;DHT22;7805;49.554;7.632;2023-02-28T08:33:40;2.60;99.90
15413;DHT22;7805;49.554;7.632;2023-02-28T08:36:06;2.90;99.90
15413;DHT22;7805;49.554;7.632;2023-02-28T08:38:32;2.90;99.20
15413;DHT22;7805;49.554;7.632;2023-02-28T08:41:06;3.10;99.10
15413;DHT22;7805;49.554;7.632;2023-02-28T08:43:33;3.10;98.50
15413;DHT22;7805;49.554;7.632;2023-02-28T08:45:59;3.10;98.30
15413;DHT22;7805;49.554;7.632;2023-02-28T08:48:29;3.20;98.40
15413;DHT22;7805;49.554;7.632;2023-02-28T08:50:59;3.10;98.20
15413;DHT22;7805;49.554;7.632;2023-02-28T08:53:25;3.30;98.50
15413;DHT22;7805;49.554;7.632;2023-02-28T08:56:19;3.10;97.90
15413;DHT22;7805;49.554;7.632;2023-02-28T08:58:46;3.20;97.70
15413;DHT22;7805;49.554;7.632;2023-02-28T09:01:13;3.10;98.00
15413;DHT22;7805;49.554;7.632;2023-02-28T09:03:40;3.30;98.00
15413;DHT22;7805;49.554;7.632;2023-02-28T09:06:08;3.40;97.80
15413;DHT22;7805;49.554;7.632;2023-02-28T09:08:34;3.40;97.30
15413;DHT22;7805;49.554;7.632;2023-02-28T09:11:00;3.40;97.20
15413;DHT22;7805;49.554;7.632;2023-02-28T09:13:26;3.30;97.20
15413;DHT22;7805;49.554;7.632;2023-02-28T09:15:52;3.50;97.70
15413;DHT22;7805;49.554;7.632;2023-02-28T09:18:18;3.70;97.30
15413;DHT22;7805;49.554;7.632;2023-02-28T09:20:44;3.80;96.60
15413;DHT22;7805;49.554;7.632;2023-02-28T09:23:11;3.90;96.10
15413;DHT22;7805;49.554;7.632;2023-02-28T09:25:38;3.90;96.10
15413;DHT22;7805;49.554;7.632;2023-02-28T09:28:09;3.90;95.80
15413;DHT22;7805;49.554;7.632;2023-02-28T09:30:35;3.90;95.70
15413;DHT22;7805;49.554;7.632;2023-02-28T09:33:00;4.10;95.60
15413;DHT22;7805;49.554;7.632;2023-02-28T09:35:26;3.90;95.40
15413;DHT22;7805;49.554;7.632;2023-02-28T09:37:52;4.10;95.40
15413;DHT22;7805;49.554;7.632;2023-02-28T09:40:20;4.20;95.10
15413;DHT22;7805;49.554;7.632;2023-02-28T09:42:49;4.30;95.00
15413;DHT22;7805;49.554;7.632;2023-02-28T09:45:49;4.70;94.50
15413;DHT22;7805;49.554;7.632;2023-02-28T09:48:20;5.40;93.60
15413;DHT22;7805;49.554;7.632;2023-02-28T09:50:53;5.70;92.50
15413;DHT22;7805;49.554;7.632;2023-02-28T09:53:27;5.90;91.50
15413;DHT22;7805;49.554;7.632;2023-02-28T09:55:58;6.10;91.60
15413;DHT22;7805;49.554;7.632;2023-02-28T09:58:33;6.40;90.20
15413;DHT22;7805;49.554;7.632;2023-02-28T10:01:21;7.40;91.10
15413;DHT22;7805;49.554;7.632;2023-02-28T10:04:00;6.60;87.90
15413;DHT22;7805;49.554;7.632;2023-02-28T10:06:36;6.80;85.50
15413;DHT22;7805;49.554;7.632;2023-02-28T10:09:10;7.00;83.80
15413;DHT22;7805;49.554;7.632;2023-02-28T10:11:40;7.50;85.50
15413;DHT22;7805;49.554;7.632;2023-02-28T10:14:27;8.10;84.70
15413;DHT22;7805;49.554;7.632;2023-02-28T10:17:19;8.20;77.80
15413;DHT22;7805;49.554;7.632;2023-02-28T10:20:04;8.40;76.80
15413;DHT22;7805;49.554;7.632;2023-02-28T10:25:20;7.80;75.50
15413;DHT22;7805;49.554;7.632;2023-02-28T10:27:46;7.60;76.50
15413;DHT22;7805;49.554;7.632;2023-02-28T10:30:12;8.00;75.80
15413;DHT22;7805;49.554;7.632;2023-02-28T10:32:39;7.90;76.20
15413;DHT22;7805;49.554;7.632;2023-02-28T10:35:21;7.90;76.00
15413;DHT22;7805;49.554;7.632;2023-02-28T10:37:50;8.20;74.80
15413;DHT22;7805;49.554;7.632;2023-02-28T10:45:28;8.40;72.00
15413;DHT22;7805;49.554;7.632;2023-02-28T10:47:58;8.80;71.70
15413;DHT22;7805;49.554;7.632;2023-02-28T10:50:28;8.80;70.40
15413;DHT22;7805;49.554;7.632;2023-02-28T10:52:54;8.80;70.00
15413;DHT22;7805;49.554;7.632;2023-02-28T10:55:25;7.90;66.90
15413;DHT22;7805;49.554;7.632;2023-02-28T10:57:52;8.70;70.20
15413;DHT22;7805;49.554;7.632;2023-02-28T11:00:23;8.70;67.50
15413;DHT22;7805;49.554;7.632;2023-02-28T11:02:51;8.80;67.40
15413;DHT22;7805;49.554;7.632;2023-02-28T11:07:56;9.20;66.70
15413;DHT22;7805;49.554;7.632;2023-02-28T11:10:25;9.60;66.50
15413;DHT22;7805;49.554;7.632;2023-02-28T11:12:55;9.90;66.30
15413;DHT22;7805;49.554;7.632;2023-02-28T11:15:30;10.00;63.70
15413;DHT22;7805;49.554;7.632;2023-02-28T11:18:20;10.20;63.80
15413;DHT22;7805;49.554;7.632;2023-02-28T11:20:51;10.10;62.80
15413;DHT22;7805;49.554;7.632;2023-02-28T11:23:18;10.40;62.20
15413;DHT22;7805;49.554;7.632;2023-02-28T11:25:51;10.30;61.80
15413;DHT22;7805;49.554;7.632;2023-02-28T11:28:32;9.90;60.70
15413;DHT22;7805;49.554;7.632;2023-02-28T11:33:51;10.00;59.40
15413;DHT22;7805;49.554;7.632;2023-02-28T11:36:23;10.10;58.90
15413;DHT22;7805;49.554;7.632;2023-02-28T11:38:54;9.90;59.50
15413;DHT22;7805;49.554;7.632;2023-02-28T11:46:56;10.30;60.30
15413;DHT22;7805;49.554;7.632;2023-02-28T11:49:34;10.70;60.10
15413;DHT22;7805;49.554;7.632;2023-02-28T11:55:12;9.50;57.60
15413;DHT22;7805;49.554;7.632;2023-02-28T12:03:26;9.10;60.00
15413;DHT22;7805;49.554;7.632;2023-02-28T12:14:21;9.10;59.50
15413;DHT22;7805;49.554;7.632;2023-02-28T12:27:28;9.40;60.50
15413;DHT22;7805;49.554;7.632;2023-02-28T12:30:17;9.70;60.30
15413;DHT22;7805;49.554;7.632;2023-02-28T12:32:53;9.80;59.50
15413;DHT22;7805;49.554;7.632;2023-02-28T12:35:28;10.20;58.80
15413;DHT22;7805;49.554;7.632;2023-02-28T12:38:05;10.30;57.80
15413;DHT22;7805;49.554;7.632;2023-02-28T12:40:47;10.40;58.50
15413;DHT22;7805;49.554;7.632;2023-02-28T12:43:16;10.70;57.50
15413;DHT22;7805;49.554;7.632;2023-02-28T12:45:56;11.20;57.90
15413;DHT22;7805;49.554;7.632;2023-02-28T12:48:29;11.40;57.50
15413;DHT22;7805;49.554;7.632;2023-02-28T12:50:57;11.70;56.30
15413;DHT22;7805;49.554;7.632;2023-02-28T12:56:21;12.20;54.40
15413;DHT22;7805;49.554;7.632;2023-02-28T12:58:55;12.60;54.60
15413;DHT22;7805;49.554;7.632;2023-02-28T13:01:30;11.60;52.90
15413;DHT22;7805;49.554;7.632;2023-02-28T13:09:25;12.90;55.00
15413;DHT22;7805;49.554;7.632;2023-02-28T13:11:54;11.50;54.00
15413;DHT22;7805;49.554;7.632;2023-02-28T13:24:47;11.40;53.40
15413;DHT22;7805;49.554;7.632;2023-02-28T13:29:49;11.90;54.80
15413;DHT22;7805;49.554;7.632;2023-02-28T13:32:20;11.60;53.00
15413;DHT22;7805;49.554;7.632;2023-02-28T13:39:51;11.80;52.80
15413;DHT22;7805;49.554;7.632;2023-02-28T13:42:32;11.10;53.20
15413;DHT22;7805;49.554;7.632;2023-02-28T13:47:51;10.40;55.20
15413;DHT22;7805;49.554;7.632;2023-02-28T13:50:24;9.90;54.70
15413;DHT22;7805;49.554;7.632;2023-02-28T14:06:27;13.30;52.90
15413;DHT22;7805;49.554;7.632;2023-02-28T14:08:57;14.20;51.50
15413;DHT22;7805;49.554;7.632;2023-02-28T14:11:27;13.00;49.50
15413;DHT22;7805;49.554;7.632;2023-02-28T14:13:54;12.80;50.60
15413;DHT22;7805;49.554;7.632;2023-02-28T14:16:40;13.00;51.20
15413;DHT22;7805;49.554;7.632;2023-02-28T14:19:20;12.50;49.90
15413;DHT22;7805;49.554;7.632;2023-02-28T14:22:15;12.90;51.20
15413;DHT22;7805;49.554;7.632;2023-02-28T14:36:39;11.50;51.40
15413;DHT22;7805;49.554;7.632;2023-02-28T14:39:10;11.70;52.60
15413;DHT22;7805;49.554;7.632;2023-02-28T14:41:39;12.10;51.70
15413;DHT22;7805;49.554;7.632;2023-02-28T14:46:48;12.00;51.60
15413;DHT22;7805;49.554;7.632;2023-02-28T14:49:27;12.00;51.60
15413;DHT22;7805;49.554;7.632;2023-02-28T14:54:38;11.60;51.80
15413;DHT22;7805;49.554;7.632;2023-02-28T14:57:05;11.30;51.20
15413;DHT22;7805;49.554;7.632;2023-02-28T14:59:35;11.30;52.00
15413;DHT22;7805;49.554;7.632;2023-02-28T15:04:43;11.10;55.40
15413;DHT22;7805;49.554;7.632;2023-02-28T15:07:14;11.30;55.60
15413;DHT22;7805;49.554;7.632;2023-02-28T15:09:40;11.60;53.40
15413;DHT22;7805;49.554;7.632;2023-02-28T15:12:06;11.50;54.90
15413;DHT22;7805;49.554;7.632;2023-02-28T15:14:32;10.60;53.30
15413;DHT22;7805;49.554;7.632;2023-02-28T15:17:02;11.40;53.20
15413;DHT22;7805;49.554;7.632;2023-02-28T15:19:33;11.50;53.80
15413;DHT22;7805;49.554;7.632;2023-02-28T15:22:03;11.20;53.10
15413;DHT22;7805;49.554;7.632;2023-02-28T15:27:00;11.00;54.20
15413;DHT22;7805;49.554;7.632;2023-02-28T15:29:41;11.00;53.50
15413;DHT22;7805;49.554;7.632;2023-02-28T15:34:52;10.50;54.20
15413;DHT22;7805;49.554;7.632;2023-02-28T15:42:39;10.00;57.30
15413;DHT22;7805;49.554;7.632;2023-02-28T15:45:05;10.00;55.10
15413;DHT22;7805;49.554;7.632;2023-02-28T15:47:51;9.60;55.20
15413;DHT22;7805;49.554;7.632;2023-02-28T15:50:17;9.40;55.50
15413;DHT22;7805;49.554;7.632;2023-02-28T15:52:45;9.30;55.90
15413;DHT22;7805;49.554;7.632;2023-02-28T15:55:22;9.20;56.30
15413;DHT22;7805;49.554;7.632;2023-02-28T15:57:51;9.00;56.50
15413;DHT22;7805;49.554;7.632;2023-02-28T16:00:23;9.00;56.90
15413;DHT22;7805;49.554;7.632;2023-02-28T16:02:49;8.90;56.90
15413;DHT22;7805;49.554;7.632;2023-02-28T16:07:46;8.60;57.00
15413;DHT22;7805;49.554;7.632;2023-02-28T16:10:14;8.50;57.60
15413;DHT22;7805;49.554;7.632;2023-02-28T16:12:40;8.20;57.80
15413;DHT22;7805;49.554;7.632;2023-02-28T16:15:14;8.00;58.60
15413;DHT22;7805;49.554;7.632;2023-02-28T16:17:42;8.00;58.80
15413;DHT22;7805;49.554;7.632;2023-02-28T16:20:16;7.90;58.90
15413;DHT22;7805;49.554;7.632;2023-02-28T16:22:43;7.70;59.20
15413;DHT22;7805;49.554;7.632;2023-02-28T16:25:15;7.60;59.50
15413;DHT22;7805;49.554;7.632;2023-02-28T16:27:42;7.60;60.00
15413;DHT22;7805;49.554;7.632;2023-02-28T16:30:23;7.40;60.00
15413;DHT22;7805;49.554;7.632;2023-02-28T16:32:51;7.20;60.50
15413;DHT22;7805;49.554;7.632;2023-02-28T16:35:17;7.10;60.90
15413;DHT22;7805;49.554;7.632;2023-02-28T16:37:44;7.10;61.40
15413;DHT22;7805;49.554;7.632;2023-02-28T16:40:20;7.00;61.80
15413;DHT22;7805;49.554;7.632;2023-02-28T16:42:48;6.90;62.50
15413;DHT22;7805;49.554;7.632;2023-02-28T16:45:17;6.20;62.30
15413;DHT22;7805;49.554;7.632;2023-02-28T16:47:44;6.90;62.70
15413;DHT22;7805;49.554;7.632;2023-02-28T16:50:19;6.70;63.00
15413;DHT22;7805;49.554;7.632;2023-02-28T16:52:45;6.60;63.40
15413;DHT22;7805;49.554;7.632;2023-02-28T16:55:11;6.60;63.60
15413;DHT22;7805;49.554;7.632;2023-02-28T16:57:37;6.60;63.80
15413;DHT22;7805;49.554;7.632;2023-02-28T17:00:04;6.60;65.20
15413;DHT22;7805;49.554;7.632;2023-02-28T17:02:30;6.60;64.60
15413;DHT22;7805;49.554;7.632;2023-02-28T17:04:56;6.60;64.70
15413;DHT22;7805;49.554;7.632;2023-02-28T17:07:21;6.50;64.80
15413;DHT22;7805;49.554;7.632;2023-02-28T17:09:47;6.30;65.00
15413;DHT22;7805;49.554;7.632;2023-02-28T17:12:12;6.30;65.60
15413;DHT22;7805;49.554;7.632;2023-02-28T17:14:38;6.30;65.40
15413;DHT22;7805;49.554;7.632;2023-02-28T17:17:05;6.10;66.30
15413;DHT22;7805;49.554;7.632;2023-02-28T17:19:31;6.10;66.60
15413;DHT22;7805;49.554;7.632;2023-02-28T17:21:57;6.10;67.00
15413;DHT22;7805;49.554;7.632;2023-02-28T17:24:22;6.00;67.10
15413;DHT22;7805;49.554;7.632;2023-02-28T17:26:48;5.90;67.50
15413;DHT22;7805;49.554;7.632;2023-02-28T17:29:17;5.90;71.30
15413;DHT22;7805;49.554;7.632;2023-02-28T17:31:43;6.10;76.80
15413;DHT22;7805;49.554;7.632;2023-02-28T17:34:08;5.90;73.60
15413;DHT22;7805;49.554;7.632;2023-02-28T17:36:34;5.70;73.40
15413;DHT22;7805;49.554;7.632;2023-02-28T17:39:03;5.50;74.20
15413;DHT22;7805;49.554;7.632;2023-02-28T17:41:29;5.20;76.40
15413;DHT22;7805;49.554;7.632;2023-02-28T17:43:56;5.10;76.60
15413;DHT22;7805;49.554;7.632;2023-02-28T17:46:23;4.80;78.10
15413;DHT22;7805;49.554;7.632;2023-02-28T17:48:50;4.70;78.50
15413;DHT22;7805;49.554;7.632;2023-02-28T17:51:17;4.60;80.00
15413;DHT22;7805;49.554;7.632;2023-02-28T17:53:43;4.50;81.80
15413;DHT22;7805;49.554;7.632;2023-02-28T17:56:17;4.40;82.40
15413;DHT22;7805;49.554;7.632;2023-02-28T17:58:44;4.20;84.70
15413;DHT22;7805;49.554;7.632;2023-02-28T18:01:09;4.10;85.90
15413;DHT22;7805;49.554;7.632;2023-02-28T18:03:35;4.00;86.70
15413;DHT22;7805;49.554;7.632;2023-02-28T18:06:01;3.80;87.30
15413;DHT22;7805;49.554;7.632;2023-02-28T18:08:28;3.80;87.40
15413;DHT22;7805;49.554;7.632;2023-02-28T18:10:53;3.80;87.70
15413;DHT22;7805;49.554;7.632;2023-02-28T18:13:19;3.80;88.70
15413;DHT22;7805;49.554;7.632;2023-02-28T18:15:45;3.70;89.80
15413;DHT22;7805;49.554;7.632;2023-02-28T18:18:10;3.60;90.10
15413;DHT22;7805;49.554;7.632;2023-02-28T18:20:36;3.60;90.00
15413;DHT22;7805;49.554;7.632;2023-02-28T18:23:02;3.60;90.00
15413;DHT22;7805;49.554;7.632;2023-02-28T18:25:28;3.70;90.00
15413;DHT22;7805;49.554;7.632;2023-02-28T18:27:53;3.70;89.90
15413;DHT22;7805;49.554;7.632;2023-02-28T18:30:27;3.70;90.30
15413;DHT22;7805;49.554;7.632;2023-02-28T18:32:55;3.70;89.80
15413;DHT22;7805;49.554;7.632;2023-02-28T18:35:22;3.70;89.60
15413;DHT22;7805;49.554;7.632;2023-02-28T18:38:13;3.70;89.80
15413;DHT22;7805;49.554;7.632;2023-02-28T18:40:39;3.70;90.10
15413;DHT22;7805;49.554;7.632;2023-02-28T18:43:05;3.70;90.30
15413;DHT22;7805;49.554;7.632;2023-02-28T18:45:34;3.70;90.10
15413;DHT22;7805;49.554;7.632;2023-02-28T18:48:00;3.70;90.20
15413;DHT22;7805;49.554;7.632;2023-02-28T18:50:26;3.60;90.50
15413;DHT22;7805;49.554;7.632;2023-02-28T18:52:51;3.50;90.60
15413;DHT22;7805;49.554;7.632;2023-02-28T18:55:18;3.50;90.80